sensor_id;sensor_type;location;lat;lon;timestamp;pressure;altitude;pressure_sealevel;temperature;humidity
51359;BME280;37448;51.588;7.248;2024-01-15T00:00:35;99548.50;;;0.25;100.00
51359;BME280;37448;51.588;7.248;2024-01-15T00:02:35;99546.81;;;0.27;100.00
51359;BME280;37448;51.588;7.248;2024-01-15T00:04:40;99535.69;;;0.25;100.00
51359;BME280;37448;51.588;7.248;2024-01-15T00:06:40;99537.38;;;0.27;100.00
51359;BME280;37448;51.588;7.248;2024-01-15T00:08:41;99539.97;;;0.26;100.00
51359;BME280;37448;51.588;7.248;2024-01-15T00:10:41;99534.00;;;0.29;100.00
51359;BME280;37448;51.588;7.248;2024-01-15T00:12:42;99539.97;;;0.29;100.00
51359;BME280;37448;51.588;7.248;2024-01-15T00:14:42;99534.81;;;0.27;100.00
51359;BME280;37448;51.588;7.248;2024-01-15T00:16:42;99534.00;;;0.29;100.00
51359;BME280;37448;51.588;7.248;2024-01-15T00:18:43;99531.44;;;0.30;100.00
51359;BME280;37448;51.588;7.248;2024-01-15T00:20:43;99529.75;;;0.31;100.00
51359;BME280;37448;51.588;7.248;2024-01-15T00:22:44;99528.03;;;0.31;100.00
51359;BME280;37448;51.588;7.248;2024-01-15T00:24:44;99523.78;;;0.32;100.00
51359;BME280;37448;51.588;7.248;2024-01-15T00:26:44;99522.91;;;0.31;100.00
51359;BME280;37448;51.588;7.248;2024-01-15T00:28:45;99523.78;;;0.32;100.00
51359;BME280;37448;51.588;7.248;2024-01-15T00:30:45;99516.94;;;0.34;100.00
51359;BME280;37448;51.588;7.248;2024-01-15T00:32:46;99516.94;;;0.34;100.00
51359;BME280;37448;51.588;7.248;2024-01-15T00:34:46;99515.22;;;0.34;100.00
51359;BME280;37448;51.588;7.248;2024-01-15T00:36:46;99516.97;;;0.37;100.00
51359;BME280;37448;51.588;7.248;2024-01-15T00:38:47;99512.66;;;0.37;100.00
51359;BME280;37448;51.588;7.248;2024-01-15T00:40:47;99521.22;;;0.36;100.00
51359;BME280;37448;51.588;7.248;2024-01-15T00:42:48;99511.81;;;0.37;100.00
51359;BME280;37448;51.588;7.248;2024-01-15T00:44:48;99514.38;;;0.38;100.00
51359;BME280;37448;51.588;7.248;2024-01-15T00:46:48;99505.84;;;0.39;100.00
51359;BME280;37448;51.588;7.248;2024-01-15T00:48:49;99504.97;;;0.37;100.00
51359;BME280;37448;51.588;7.248;2024-01-15T00:50:49;99507.59;;;0.40;100.00
51359;BME280;37448;51.588;7.248;2024-01-15T00:52:49;99509.25;;;0.38;100.00
51359;BME280;37448;51.588;7.248;2024-01-15T00:54:50;99500.72;;;0.39;100.00
51359;BME280;37448;51.588;7.248;2024-01-15T00:56:50;99509.31;;;0.41;100.00
51359;BME280;37448;51.588;7.248;2024-01-15T00:58:50;99512.72;;;0.40;100.00
51359;BME280;37448;51.588;7.248;2024-01-15T01:00:51;99511.00;;;0.43;100.00
51359;BME280;37448;51.588;7.248;2024-01-15T01:02:51;99509.31;;;0.41;100.00
51359;BME280;37448;51.588;7.248;2024-01-15T01:04:51;99506.72;;;0.43;100.00
51359;BME280;37448;51.588;7.248;2024-01-15T01:06:52;99501.63;;;0.45;100.00
51359;BME280;37448;51.588;7.248;2024-01-15T01:08:52;99500.75;;;0.43;100.00
51359;BME280;37448;51.588;7.248;2024-01-15T01:10:52;99495.63;;;0.43;100.00
51359;BME280;37448;51.588;7.248;2024-01-15T01:12:53;99497.34;;;0.44;100.00
51359;BME280;37448;51.588;7.248;2024-01-15T01:14:53;99495.63;;;0.43;100.00
51359;BME280;37448;51.588;7.248;2024-01-15T01:16:54;99499.06;;;0.45;100.00
51359;BME280;37448;51.588;7.248;2024-01-15T01:18:57;99495.63;;;0.43;100.00
51359;BME280;37448;51.588;7.248;2024-01-15T01:20:58;99491.34;;;0.43;100.00
51359;BME280;37448;51.588;7.248;2024-01-15T01:22:58;99485.31;;;0.39;100.00
51359;BME280;37448;51.588;7.248;2024-01-15T01:24:58;99487.06;;;0.40;100.00
51359;BME280;37448;51.588;7.248;2024-01-15T01:26:59;99481.88;;;0.37;100.00
51359;BME280;37448;51.588;7.248;2024-01-15T01:29:00;99485.31;;;0.39;100.00
51359;BME280;37448;51.588;7.248;2024-01-15T01:31:00;99488.75;;;0.38;100.00
51359;BME280;37448;51.588;7.248;2024-01-15T01:33:00;99488.72;;;0.35;100.00
51359;BME280;37448;51.588;7.248;2024-01-15T01:35:01;99482.75;;;0.35;100.00
51359;BME280;37448;51.588;7.248;2024-01-15T01:37:01;99488.72;;;0.35;100.00
51359;BME280;37448;51.588;7.248;2024-01-15T01:39:01;99484.44;;;0.34;100.00
51359;BME280;37448;51.588;7.248;2024-01-15T01:41:02;99484.47;;;0.36;100.00
51359;BME280;37448;51.588;7.248;2024-01-15T01:43:04;99488.72;;;0.35;100.00
51359;BME280;37448;51.588;7.248;2024-01-15T01:45:05;99483.59;;;0.35;100.00
51359;BME280;37448;51.588;7.248;2024-01-15T01:47:06;99484.44;;;0.31;100.00
51359;BME280;37448;51.588;7.248;2024-01-15T01:49:07;99483.59;;;0.32;100.00
51359;BME280;37448;51.588;7.248;2024-01-15T01:51:09;99481.00;;;0.32;100.00
51359;BME280;37448;51.588;7.248;2024-01-15T01:53:10;99475.03;;;0.30;100.00
51359;BME280;37448;51.588;7.248;2024-01-15T01:55:11;99475.03;;;0.32;100.00
51359;BME280;37448;51.588;7.248;2024-01-15T01:57:13;99475.03;;;0.33;100.00
51359;BME280;37448;51.588;7.248;2024-01-15T01:59:14;99485.28;;;0.33;100.00
51359;BME280;37448;51.588;7.248;2024-01-15T02:01:15;99485.28;;;0.33;100.00
51359;BME280;37448;51.588;7.248;2024-01-15T02:03:16;99487.00;;;0.31;100.00
51359;BME280;37448;51.588;7.248;2024-01-15T02:05:19;99487.84;;;0.33;100.00
51359;BME280;37448;51.588;7.248;2024-01-15T02:07:20;99482.72;;;0.33;100.00
51359;BME280;37448;51.588;7.248;2024-01-15T02:09:21;99477.59;;;0.30;100.00
51359;BME280;37448;51.588;7.248;2024-01-15T02:11:21;99483.59;;;0.32;100.00
51359;BME280;37448;51.588;7.248;2024-01-15T02:13:22;99475.88;;;0.29;100.00
51359;BME280;37448;51.588;7.248;2024-01-15T02:15:22;99482.72;;;0.29;100.00
51359;BME280;37448;51.588;7.248;2024-01-15T02:17:23;99488.69;;;0.29;100.00
51359;BME280;37448;51.588;7.248;2024-01-15T02:19:24;99488.66;;;0.27;100.00
51359;BME280;37448;51.588;7.248;2024-01-15T02:21:24;99500.66;;;0.30;100.00
51359;BME280;37448;51.588;7.248;2024-01-15T02:23:26;99493.84;;;0.32;100.00
51359;BME280;37448;51.588;7.248;2024-01-15T02:25:27;99490.41;;;0.30;100.00
51359;BME280;37448;51.588;7.248;2024-01-15T02:27:27;99494.72;;;0.33;100.00
51359;BME280;37448;51.588;7.248;2024-01-15T02:29:27;99484.44;;;0.30;100.00
51359;BME280;37448;51.588;7.248;2024-01-15T02:31:28;99486.16;;;0.35;100.00
51359;BME280;37448;51.588;7.248;2024-01-15T02:33:28;99491.31;;;0.38;100.00
51359;BME280;37448;51.588;7.248;2024-01-15T02:35:28;99487.03;;;0.37;100.00
51359;BME280;37448;51.588;7.248;2024-01-15T02:37:29;99486.19;;;0.40;100.00
51359;BME280;37448;51.588;7.248;2024-01-15T02:39:29;99495.56;;;0.39;100.00
51359;BME280;37448;51.588;7.248;2024-01-15T02:41:29;99488.75;;;0.38;100.00
51359;BME280;37448;51.588;7.248;2024-01-15T02:43:30;99490.44;;;0.39;100.00
51359;BME280;37448;51.588;7.248;2024-01-15T02:45:30;99487.06;;;0.40;100.00
51359;BME280;37448;51.588;7.248;2024-01-15T02:47:30;99482.75;;;0.39;100.00
51359;BME280;37448;51.588;7.248;2024-01-15T02:49:31;99478.50;;;0.37;100.00
51359;BME280;37448;51.588;7.248;2024-01-15T02:51:32;99483.59;;;0.34;100.00
51359;BME280;37448;51.588;7.248;2024-01-15T02:53:32;99482.72;;;0.33;100.00
51359;BME280;37448;51.588;7.248;2024-01-15T02:55:33;99481.88;;;0.31;100.00
51359;BME280;37448;51.588;7.248;2024-01-15T02:57:33;99477.59;;;0.32;100.00
51359;BME280;37448;51.588;7.248;2024-01-15T02:59:34;99488.72;;;0.32;100.00
51359;BME280;37448;51.588;7.248;2024-01-15T03:01:34;99481.88;;;0.31;100.00
51359;BME280;37448;51.588;7.248;2024-01-15T03:03:34;99485.28;;;0.33;100.00
51359;BME280;37448;51.588;7.248;2024-01-15T03:05:35;99493.00;;;0.33;100.00
51359;BME280;37448;51.588;7.248;2024-01-15T03:07:35;99481.03;;;0.31;100.00
51359;BME280;37448;51.588;7.248;2024-01-15T03:09:36;99493.00;;;0.33;100.00
51359;BME280;37448;51.588;7.248;2024-01-15T03:11:37;99493.84;;;0.34;100.00
51359;BME280;37448;51.588;7.248;2024-01-15T03:13:38;99503.25;;;0.32;100.00
51359;BME280;37448;51.588;7.248;2024-01-15T03:15:39;99499.84;;;0.34;100.00
51359;BME280;37448;51.588;7.248;2024-01-15T03:17:41;99496.44;;;0.34;100.00
51359;BME280;37448;51.588;7.248;2024-01-15T03:19:41;99491.28;;;0.32;100.00
51359;BME280;37448;51.588;7.248;2024-01-15T03:21:43;99493.00;;;0.35;100.00
51359;BME280;37448;51.588;7.248;2024-01-15T03:23:43;99508.38;;;0.33;100.00
51359;BME280;37448;51.588;7.248;2024-01-15T03:25:44;99504.97;;;0.37;100.00
51359;BME280;37448;51.588;7.248;2024-01-15T03:27:44;99501.56;;;0.37;100.00
51359;BME280;37448;51.588;7.248;2024-01-15T03:29:45;99492.16;;;0.37;100.00
51359;BME280;37448;51.588;7.248;2024-01-15T03:31:45;99491.28;;;0.35;100.00
51359;BME280;37448;51.588;7.248;2024-01-15T03:33:45;99486.16;;;0.35;100.00
51359;BME280;37448;51.588;7.248;2024-01-15T03:35:46;99492.16;;;0.36;100.00
51359;BME280;37448;51.588;7.248;2024-01-15T03:37:46;99493.84;;;0.35;100.00
51359;BME280;37448;51.588;7.248;2024-01-15T03:39:47;99482.75;;;0.35;100.00
51359;BME280;37448;51.588;7.248;2024-01-15T03:41:47;99497.28;;;0.37;100.00
51359;BME280;37448;51.588;7.248;2024-01-15T03:43:48;99489.59;;;0.37;100.00
51359;BME280;37448;51.588;7.248;2024-01-15T03:45:48;99493.88;;;0.38;100.00
51359;BME280;37448;51.588;7.248;2024-01-15T03:47:48;99487.88;;;0.39;100.00
51359;BME280;37448;51.588;7.248;2024-01-15T03:49:49;99483.59;;;0.38;100.00
51359;BME280;37448;51.588;7.248;2024-01-15T03:51:49;99487.06;;;0.40;100.00
51359;BME280;37448;51.588;7.248;2024-01-15T03:53:49;99479.38;;;0.40;100.00
51359;BME280;37448;51.588;7.248;2024-01-15T03:55:50;99471.69;;;0.40;100.00
51359;BME280;37448;51.588;7.248;2024-01-15T03:57:50;99467.38;;;0.41;100.00
51359;BME280;37448;51.588;7.248;2024-01-15T03:59:51;99459.72;;;0.43;100.00
51359;BME280;37448;51.588;7.248;2024-01-15T04:01:51;99465.69;;;0.41;100.00
51359;BME280;37448;51.588;7.248;2024-01-15T04:03:52;99451.16;;;0.44;100.00
51359;BME280;37448;51.588;7.248;2024-01-15T04:05:52;99460.59;;;0.45;100.00
51359;BME280;37448;51.588;7.248;2024-01-15T04:07:52;99449.47;;;0.43;100.00
51359;BME280;37448;51.588;7.248;2024-01-15T04:09:53;99449.47;;;0.43;100.00
51359;BME280;37448;51.588;7.248;2024-01-15T04:11:53;99452.84;;;0.38;100.00
51359;BME280;37448;51.588;7.248;2024-01-15T04:13:53;99459.66;;;0.36;100.00
51359;BME280;37448;51.588;7.248;2024-01-15T04:15:54;99445.97;;;0.30;100.00
51359;BME280;37448;51.588;7.248;2024-01-15T04:17:54;99457.94;;;0.35;100.00
51359;BME280;37448;51.588;7.248;2024-01-15T04:19:54;99461.38;;;0.34;100.00
51359;BME280;37448;51.588;7.248;2024-01-15T04:21:55;99456.25;;;0.37;100.00
51359;BME280;37448;51.588;7.248;2024-01-15T04:23:55;99437.44;;;0.35;100.00
51359;BME280;37448;51.588;7.248;2024-01-15T04:25:57;99449.41;;;0.39;100.00
51359;BME280;37448;51.588;7.248;2024-01-15T04:27:57;99445.13;;;0.38;100.00
51359;BME280;37448;51.588;7.248;2024-01-15T04:29:57;99449.41;;;0.39;100.00
51359;BME280;37448;51.588;7.248;2024-01-15T04:31:58;99449.41;;;0.39;100.00
51359;BME280;37448;51.588;7.248;2024-01-15T04:33:58;99435.78;;;0.40;100.00
51359;BME280;37448;51.588;7.248;2024-01-15T04:36:02;99430.66;;;0.40;100.00
51359;BME280;37448;51.588;7.248;2024-01-15T04:38:02;99428.91;;;0.39;100.00
51359;BME280;37448;51.588;7.248;2024-01-15T04:40:03;99422.06;;;0.40;100.00
51359;BME280;37448;51.588;7.248;2024-01-15T04:42:04;99428.94;;;0.43;100.00
51359;BME280;37448;51.588;7.248;2024-01-15T04:44:04;99425.50;;;0.40;100.00
51359;BME280;37448;51.588;7.248;2024-01-15T04:46:08;99423.81;;;0.43;100.00
51359;BME280;37448;51.588;7.248;2024-01-15T04:48:08;99427.25;;;0.45;100.00
51359;BME280;37448;51.588;7.248;2024-01-15T04:50:08;99426.38;;;0.44;100.00
51359;BME280;37448;51.588;7.248;2024-01-15T04:52:09;99425.50;;;0.40;100.00
51359;BME280;37448;51.588;7.248;2024-01-15T04:54:12;99413.56;;;0.43;100.00
51359;BME280;37448;51.588;7.248;2024-01-15T04:56:17;99422.09;;;0.45;100.00
51359;BME280;37448;51.588;7.248;2024-01-15T04:58:18;99414.41;;;0.45;100.00
51359;BME280;37448;51.588;7.248;2024-01-15T05:00:18;99412.69;;;0.45;100.00
51359;BME280;37448;51.588;7.248;2024-01-15T05:02:19;99412.69;;;0.44;100.00
51359;BME280;37448;51.588;7.248;2024-01-15T05:04:20;99410.13;;;0.44;100.00
51359;BME280;37448;51.588;7.248;2024-01-15T05:06:20;99406.69;;;0.43;100.00
51359;BME280;37448;51.588;7.248;2024-01-15T05:08:20;99404.16;;;0.45;100.00
51359;BME280;37448;51.588;7.248;2024-01-15T05:10:21;99404.16;;;0.45;100.00
51359;BME280;37448;51.588;7.248;2024-01-15T05:12:21;99403.28;;;0.43;100.00
51359;BME280;37448;51.588;7.248;2024-01-15T05:14:22;99402.44;;;0.45;100.00
51359;BME280;37448;51.588;7.248;2024-01-15T05:16:22;99398.16;;;0.43;100.00
51359;BME280;37448;51.588;7.248;2024-01-15T05:18:23;99401.59;;;0.48;100.00
51359;BME280;37448;51.588;7.248;2024-01-15T05:20:23;99402.44;;;0.45;100.00
51359;BME280;37448;51.588;7.248;2024-01-15T05:22:24;99401.59;;;0.48;100.00
51359;BME280;37448;51.588;7.248;2024-01-15T05:24:25;99392.19;;;0.48;100.00
51359;BME280;37448;51.588;7.248;2024-01-15T05:26:26;99404.16;;;0.48;100.00
51359;BME280;37448;51.588;7.248;2024-01-15T05:28:26;99403.31;;;0.52;100.00
51359;BME280;37448;51.588;7.248;2024-01-15T05:30:27;99401.59;;;0.48;100.00
51359;BME280;37448;51.588;7.248;2024-01-15T05:32:27;99399.06;;;0.52;100.00
51359;BME280;37448;51.588;7.248;2024-01-15T05:34:28;99391.34;;;0.54;100.00
51359;BME280;37448;51.588;7.248;2024-01-15T05:36:28;99393.91;;;0.54;100.00
51359;BME280;37448;51.588;7.248;2024-01-15T05:38:28;99397.34;;;0.54;100.00
51359;BME280;37448;51.588;7.248;2024-01-15T05:40:29;99393.06;;;0.55;100.00
51359;BME280;37448;51.588;7.248;2024-01-15T05:42:29;99395.63;;;0.58;100.00
51359;BME280;37448;51.588;7.248;2024-01-15T05:44:30;99393.94;;;0.55;100.00
51359;BME280;37448;51.588;7.248;2024-01-15T05:46:31;99396.50;;;0.55;100.00
51359;BME280;37448;51.588;7.248;2024-01-15T05:48:31;99382.81;;;0.55;100.00
51359;BME280;37448;51.588;7.248;2024-01-15T05:50:31;99390.50;;;0.58;100.00
51359;BME280;37448;51.588;7.248;2024-01-15T05:52:32;99389.66;;;0.56;100.00
51359;BME280;37448;51.588;7.248;2024-01-15T05:54:32;99390.53;;;0.60;100.00
51359;BME280;37448;51.588;7.248;2024-01-15T05:56:33;99393.06;;;0.55;100.00
51359;BME280;37448;51.588;7.248;2024-01-15T05:58:33;99397.34;;;0.56;100.00
51359;BME280;37448;51.588;7.248;2024-01-15T06:00:33;99393.09;;;0.56;100.00
51359;BME280;37448;51.588;7.248;2024-01-15T06:02:37;99401.63;;;0.57;100.00
51359;BME280;37448;51.588;7.248;2024-01-15T06:04:37;99387.09;;;0.56;100.00
51359;BME280;37448;51.588;7.248;2024-01-15T06:06:38;99382.81;;;0.56;100.00
51359;BME280;37448;51.588;7.248;2024-01-15T06:08:38;99381.09;;;0.57;100.00
51359;BME280;37448;51.588;7.248;2024-01-15T06:10:39;99384.50;;;0.56;100.00
51359;BME280;37448;51.588;7.248;2024-01-15T06:12:39;99387.94;;;0.56;100.00
51359;BME280;37448;51.588;7.248;2024-01-15T06:14:40;99372.53;;;0.55;100.00
51359;BME280;37448;51.588;7.248;2024-01-15T06:16:41;99375.13;;;0.53;100.00
51359;BME280;37448;51.588;7.248;2024-01-15T06:18:42;99375.97;;;0.54;100.00
51359;BME280;37448;51.588;7.248;2024-01-15T06:20:43;99367.41;;;0.52;100.00
51359;BME280;37448;51.588;7.248;2024-01-15T06:22:43;99372.53;;;0.52;100.00
51359;BME280;37448;51.588;7.248;2024-01-15T06:24:43;99371.69;;;0.53;100.00
51359;BME280;37448;51.588;7.248;2024-01-15T06:26:44;99373.41;;;0.55;100.00
51359;BME280;37448;51.588;7.248;2024-01-15T06:28:44;99382.81;;;0.55;100.00
51359;BME280;37448;51.588;7.248;2024-01-15T06:30:44;99383.66;;;0.54;100.00
51359;BME280;37448;51.588;7.248;2024-01-15T06:32:45;99381.94;;;0.56;100.00
51359;BME280;37448;51.588;7.248;2024-01-15T06:34:45;99374.25;;;0.53;100.00
51359;BME280;37448;51.588;7.248;2024-01-15T06:36:45;99375.13;;;0.53;100.00
51359;BME280;37448;51.588;7.248;2024-01-15T06:38:46;99372.53;;;0.55;100.00
51359;BME280;37448;51.588;7.248;2024-01-15T06:40:47;99371.72;;;0.58;100.00
51359;BME280;37448;51.588;7.248;2024-01-15T06:42:48;99372.56;;;0.61;100.00
51359;BME280;37448;51.588;7.248;2024-01-15T06:44:49;99368.28;;;0.57;100.00
51359;BME280;37448;51.588;7.248;2024-01-15T06:46:49;99370.00;;;0.60;100.00
51359;BME280;37448;51.588;7.248;2024-01-15T06:48:50;99376.84;;;0.61;100.00
51359;BME280;37448;51.588;7.248;2024-01-15T06:50:50;99373.44;;;0.62;100.00
51359;BME280;37448;51.588;7.248;2024-01-15T06:52:51;99372.56;;;0.60;100.00
51359;BME280;37448;51.588;7.248;2024-01-15T06:54:51;99374.25;;;0.62;100.00
51359;BME280;37448;51.588;7.248;2024-01-15T06:56:51;99378.53;;;0.60;100.00
51359;BME280;37448;51.588;7.248;2024-01-15T06:58:52;99369.13;;;0.56;100.00
51359;BME280;37448;51.588;7.248;2024-01-15T07:00:52;99377.69;;;0.61;100.00
51359;BME280;37448;51.588;7.248;2024-01-15T07:02:53;99383.66;;;0.60;100.00
51359;BME280;37448;51.588;7.248;2024-01-15T07:04:54;99370.84;;;0.60;100.00
51359;BME280;37448;51.588;7.248;2024-01-15T07:06:54;99387.94;;;0.61;100.00
51359;BME280;37448;51.588;7.248;2024-01-15T07:08:54;99381.09;;;0.60;100.00
51359;BME280;37448;51.588;7.248;2024-01-15T07:10:55;99381.97;;;0.59;100.00
51359;BME280;37448;51.588;7.248;2024-01-15T07:12:55;99390.53;;;0.63;100.00
51359;BME280;37448;51.588;7.248;2024-01-15T07:14:56;99389.66;;;0.62;100.00
51359;BME280;37448;51.588;7.248;2024-01-15T07:16:56;99384.53;;;0.62;100.00
51359;BME280;37448;51.588;7.248;2024-01-15T07:18:57;99389.66;;;0.62;100.00
51359;BME280;37448;51.588;7.248;2024-01-15T07:20:57;99389.66;;;0.62;100.00
51359;BME280;37448;51.588;7.248;2024-01-15T07:22:58;99384.53;;;0.62;100.00
51359;BME280;37448;51.588;7.248;2024-01-15T07:24:59;99374.25;;;0.59;100.00
51359;BME280;37448;51.588;7.248;2024-01-15T07:26:59;99375.97;;;0.63;100.00
51359;BME280;37448;51.588;7.248;2024-01-15T07:28:59;99378.56;;;0.65;100.00
51359;BME280;37448;51.588;7.248;2024-01-15T07:31:00;99370.84;;;0.63;100.00
51359;BME280;37448;51.588;7.248;2024-01-15T07:33:01;99370.84;;;0.63;100.00
51359;BME280;37448;51.588;7.248;2024-01-15T07:35:03;99375.13;;;0.63;100.00
51359;BME280;37448;51.588;7.248;2024-01-15T07:37:04;99375.97;;;0.63;100.00
51359;BME280;37448;51.588;7.248;2024-01-15T07:39:05;99370.84;;;0.63;100.00
51359;BME280;37448;51.588;7.248;2024-01-15T07:41:05;99374.31;;;0.65;100.00
51359;BME280;37448;51.588;7.248;2024-01-15T07:43:08;99374.31;;;0.65;100.00
51359;BME280;37448;51.588;7.248;2024-01-15T07:45:10;99378.56;;;0.65;100.00
51359;BME280;37448;51.588;7.248;2024-01-15T07:47:10;99375.13;;;0.66;100.00
51359;BME280;37448;51.588;7.248;2024-01-15T07:49:11;99384.56;;;0.68;100.00
51359;BME280;37448;51.588;7.248;2024-01-15T07:51:11;99376.88;;;0.65;100.00
51359;BME280;37448;51.588;7.248;2024-01-15T07:53:12;99386.22;;;0.60;100.00
51359;BME280;37448;51.588;7.248;2024-01-15T07:55:12;99377.69;;;0.61;100.00
51359;BME280;37448;51.588;7.248;2024-01-15T07:57:13;99382.81;;;0.58;100.00
51359;BME280;37448;51.588;7.248;2024-01-15T07:59:14;99379.41;;;0.61;100.00
51359;BME280;37448;51.588;7.248;2024-01-15T08:01:14;99380.25;;;0.58;100.00
51359;BME280;37448;51.588;7.248;2024-01-15T08:03:15;99382.81;;;0.61;100.00
51359;BME280;37448;51.588;7.248;2024-01-15T08:05:15;99381.97;;;0.62;100.00
51359;BME280;37448;51.588;7.248;2024-01-15T08:07:16;99383.69;;;0.59;100.00
51359;BME280;37448;51.588;7.248;2024-01-15T08:09:16;99389.66;;;0.61;100.00
51359;BME280;37448;51.588;7.248;2024-01-15T08:11:16;99372.56;;;0.61;100.00
51359;BME280;37448;51.588;7.248;2024-01-15T08:13:17;99381.09;;;0.60;100.00
51359;BME280;37448;51.588;7.248;2024-01-15T08:15:17;99374.25;;;0.56;100.00
51359;BME280;37448;51.588;7.248;2024-01-15T08:17:17;99373.41;;;0.57;100.00
51359;BME280;37448;51.588;7.248;2024-01-15T08:19:18;99369.97;;;0.58;100.00
51359;BME280;37448;51.588;7.248;2024-01-15T08:21:23;99374.25;;;0.56;100.00
51359;BME280;37448;51.588;7.248;2024-01-15T08:23:23;99375.09;;;0.55;100.00
51359;BME280;37448;51.588;7.248;2024-01-15T08:25:25;99373.41;;;0.52;100.00
51359;BME280;37448;51.588;7.248;2024-01-15T08:27:26;99374.25;;;0.50;100.00
51359;BME280;37448;51.588;7.248;2024-01-15T08:29:26;99373.38;;;0.49;100.00
51359;BME280;37448;51.588;7.248;2024-01-15T08:31:27;99369.94;;;0.41;100.00
51359;BME280;37448;51.588;7.248;2024-01-15T08:33:27;99369.91;;;0.36;100.00
51359;BME280;37448;51.588;7.248;2024-01-15T08:35:28;99372.47;;;0.39;100.00
51359;BME280;37448;51.588;7.248;2024-01-15T08:37:28;99375.91;;;0.38;100.00
51359;BME280;37448;51.588;7.248;2024-01-15T08:39:28;99370.78;;;0.34;100.00
51359;BME280;37448;51.588;7.248;2024-01-15T08:41:30;99374.19;;;0.36;100.00
51359;BME280;37448;51.588;7.248;2024-01-15T08:43:30;99380.16;;;0.39;100.00
51359;BME280;37448;51.588;7.248;2024-01-15T08:45:31;99380.19;;;0.38;100.00
51359;BME280;37448;51.588;7.248;2024-01-15T08:47:31;99374.19;;;0.37;100.00
51359;BME280;37448;51.588;7.248;2024-01-15T08:49:32;99382.72;;;0.39;100.00
51359;BME280;37448;51.588;7.248;2024-01-15T08:51:32;99383.63;;;0.43;100.00
51359;BME280;37448;51.588;7.248;2024-01-15T08:53:32;99385.34;;;0.46;100.00
51359;BME280;37448;51.588;7.248;2024-01-15T08:55:33;99381.06;;;0.45;100.00
51359;BME280;37448;51.588;7.248;2024-01-15T08:57:33;99399.88;;;0.47;100.00
51359;BME280;37448;51.588;7.248;2024-01-15T08:59:34;99383.63;;;0.46;100.00
51359;BME280;37448;51.588;7.248;2024-01-15T09:01:34;99399.91;;;0.50;100.00
51359;BME280;37448;51.588;7.248;2024-01-15T09:03:35;99391.34;;;0.45;100.00
51359;BME280;37448;51.588;7.248;2024-01-15T09:05:36;99397.31;;;0.48;100.00
51359;BME280;37448;51.588;7.248;2024-01-15T09:07:37;99400.72;;;0.50;100.00
51359;BME280;37448;51.588;7.248;2024-01-15T09:09:37;99393.06;;;0.52;100.00
51359;BME280;37448;51.588;7.248;2024-01-15T09:11:38;99383.63;;;0.48;100.00
51359;BME280;37448;51.588;7.248;2024-01-15T09:13:38;99391.34;;;0.51;100.00
51359;BME280;37448;51.588;7.248;2024-01-15T09:15:38;99394.75;;;0.50;100.00
51359;BME280;37448;51.588;7.248;2024-01-15T09:17:39;99388.78;;;0.51;100.00
51359;BME280;37448;51.588;7.248;2024-01-15T09:19:39;99404.19;;;0.52;100.00
51359;BME280;37448;51.588;7.248;2024-01-15T09:21:40;99399.03;;;0.54;100.00
51359;BME280;37448;51.588;7.248;2024-01-15T09:23:40;99410.16;;;0.53;100.00
51359;BME280;37448;51.588;7.248;2024-01-15T09:25:41;99415.28;;;0.50;100.00
51359;BME280;37448;51.588;7.248;2024-01-15T09:27:41;99406.72;;;0.49;100.00
51359;BME280;37448;51.588;7.248;2024-01-15T09:29:42;99401.59;;;0.48;100.00
51359;BME280;37448;51.588;7.248;2024-01-15T09:31:45;99402.44;;;0.48;100.00
51359;BME280;37448;51.588;7.248;2024-01-15T09:33:46;99399.03;;;0.45;100.00
51359;BME280;37448;51.588;7.248;2024-01-15T09:35:46;99405.81;;;0.39;100.00
51359;BME280;37448;51.588;7.248;2024-01-15T09:37:46;99400.72;;;0.44;100.00
51359;BME280;37448;51.588;7.248;2024-01-15T09:39:47;99394.72;;;0.42;100.00
51359;BME280;37448;51.588;7.248;2024-01-15T09:41:49;99398.16;;;0.41;100.00
51359;BME280;37448;51.588;7.248;2024-01-15T09:43:49;99393.88;;;0.43;100.00
51359;BME280;37448;51.588;7.248;2024-01-15T09:45:50;99405.00;;;0.40;100.00
51359;BME280;37448;51.588;7.248;2024-01-15T09:47:57;99399.84;;;0.36;100.00
51359;BME280;37448;51.588;7.248;2024-01-15T09:49:57;99392.16;;;0.39;100.00
51359;BME280;37448;51.588;7.248;2024-01-15T09:51:58;99401.59;;;0.45;100.00
51359;BME280;37448;51.588;7.248;2024-01-15T09:53:58;99402.44;;;0.40;100.00
51359;BME280;37448;51.588;7.248;2024-01-15T09:55:59;99405.00;;;0.44;100.00
51359;BME280;37448;51.588;7.248;2024-01-15T09:58:00;99403.31;;;0.46;100.00
51359;BME280;37448;51.588;7.248;2024-01-15T10:00:04;99396.47;;;0.48;100.00
51359;BME280;37448;51.588;7.248;2024-01-15T10:02:07;99394.75;;;0.47;100.00
51359;BME280;37448;51.588;7.248;2024-01-15T10:04:07;99394.75;;;0.47;100.00
51359;BME280;37448;51.588;7.248;2024-01-15T10:06:08;99399.88;;;0.40;100.00
51359;BME280;37448;51.588;7.248;2024-01-15T10:08:09;99400.72;;;0.47;100.00
51359;BME280;37448;51.588;7.248;2024-01-15T10:10:11;99401.56;;;0.46;100.00
51359;BME280;37448;51.588;7.248;2024-01-15T10:12:11;99399.03;;;0.48;100.00
51359;BME280;37448;51.588;7.248;2024-01-15T10:14:12;99399.91;;;0.50;100.00
51359;BME280;37448;51.588;7.248;2024-01-15T10:16:13;99400.72;;;0.44;100.00
51359;BME280;37448;51.588;7.248;2024-01-15T10:18:13;99397.31;;;0.48;100.00
51359;BME280;37448;51.588;7.248;2024-01-15T10:20:13;99398.19;;;0.49;100.00
51359;BME280;37448;51.588;7.248;2024-01-15T10:22:14;99390.50;;;0.53;100.00
51359;BME280;37448;51.588;7.248;2024-01-15T10:24:16;99391.34;;;0.54;100.00
51359;BME280;37448;51.588;7.248;2024-01-15T10:26:17;99391.38;;;0.55;100.00
51359;BME280;37448;51.588;7.248;2024-01-15T10:28:19;99394.78;;;0.53;100.00
51359;BME280;37448;51.588;7.248;2024-01-15T10:30:19;99386.22;;;0.57;100.00
51359;BME280;37448;51.588;7.248;2024-01-15T10:32:20;99390.50;;;0.55;100.00
51359;BME280;37448;51.588;7.248;2024-01-15T10:34:24;99388.78;;;0.57;100.00
51359;BME280;37448;51.588;7.248;2024-01-15T10:36:25;99391.38;;;0.60;100.00
51359;BME280;37448;51.588;7.248;2024-01-15T10:38:26;99396.50;;;0.57;100.00